Wilmington, North Carolina
Current Conditions -  °F | °C
As of 12:53 PM on Thursday 23 Oct 2014 (Local Time) from KILM Reporting Station
Clear Clear  
Wind Chill: 19°   Ceiling: Unl
Heat Index: 19°   Visibility: 10mi
Dew Point:   Wind: 13mph
Humidity: 45%   Direction: 300°WNW
Pressure: 29.98"   Gusts: NA
Location:  34.24°N, 77.94°W
Report Text: KILM 231653Z 30011KT 10SM CLR 19/07 A2998 RMK AO2 SLP153 T01890067
Loading
Personal Weather Stations






























Interactive Weather Map
Tropical Storm Tracking
New forecast layout! Learn more

10-Day Weather Forecast

Advertisements
Track Severe Weather on mobile